Time;durP1;ratioP1;P1;durP2;ratioP2;P2;SDS_P1;SDS_P2;PMS_P1;PMS_P2;Temp;Humidity;BMP_temperature;BMP_pressure;BME280_temperature;BME280_humidity;BME280_pressure;Samples;Min_cycle;Max_cycle;Signal;HPM_P1;HPM_P2
2024/02/20 00:02:20;;;;;;;14.02;3.80;;;7.80;99.90;;;;;;5032818;28;20405;-62
2024/02/20 00:04:47;;;;;;;18.38;4.22;;;7.80;99.90;;;;;;5035428;28;20409;-62
2024/02/20 00:07:14;;;;;;;22.33;4.40;;;7.80;99.90;;;;;;5036305;28;20053;-62
2024/02/20 00:09:40;;;;;;;20.27;5.32;;;7.70;99.90;;;;;;5036324;28;20045;-62
2024/02/20 00:12:07;;;;;;;20.60;3.83;;;7.70;99.90;;;;;;5036161;28;20069;-62
2024/02/20 00:14:34;;;;;;;17.08;4.05;;;7.70;99.90;;;;;;5035885;28;20540;-62
2024/02/20 00:17:03;;;;;;;21.35;4.10;;;7.70;99.90;;;;;;5036019;28;20060;-62
2024/02/20 00:19:30;;;;;;;24.92;5.47;;;7.80;99.90;;;;;;5035809;28;20061;-62
2024/02/20 00:21:56;;;;;;;20.42;3.97;;;7.80;99.90;;;;;;5035870;28;20096;-61
2024/02/20 00:24:23;;;;;;;16.80;4.10;;;7.80;99.90;;;;;;5035625;28;20041;-62
2024/02/20 00:26:50;;;;;;;17.67;4.50;;;7.80;99.90;;;;;;5036139;28;20033;-63
2024/02/20 00:29:17;;;;;;;20.55;4.18;;;7.80;99.90;;;;;;5036503;28;20344;-62
2024/02/20 00:31:44;;;;;;;20.73;4.20;;;7.80;99.90;;;;;;5035929;28;20041;-63
2024/02/20 00:34:10;;;;;;;27.02;4.55;;;7.80;99.90;;;;;;5034133;28;20137;-63
2024/02/20 00:36:37;;;;;;;22.15;4.30;;;7.80;99.90;;;;;;5035777;28;20046;-63
2024/02/20 00:39:04;;;;;;;20.35;4.75;;;7.80;99.90;;;;;;5036002;28;20045;-63
2024/02/20 00:41:31;;;;;;;16.55;3.80;;;7.80;99.90;;;;;;5035563;28;20029;-63
2024/02/20 00:43:57;;;;;;;18.80;4.28;;;7.80;99.90;;;;;;5035843;28;20100;-63
2024/02/20 00:46:25;;;;;;;17.98;3.95;;;7.80;99.90;;;;;;5035366;28;20037;-63
2024/02/20 00:48:51;;;;;;;18.70;4.43;;;7.70;99.90;;;;;;5035311;28;20116;-62
2024/02/20 00:51:19;;;;;;;24.00;4.50;;;7.80;99.90;;;;;;5035615;28;20045;-65
2024/02/20 00:53:46;;;;;;;20.90;4.10;;;7.80;99.90;;;;;;5035802;28;20129;-64
2024/02/20 00:56:13;;;;;;;21.35;4.70;;;7.80;99.90;;;;;;5035219;28;20041;-64
2024/02/20 00:58:40;;;;;;;21.20;4.00;;;7.80;99.90;;;;;;5035628;28;20522;-64
2024/02/20 01:01:10;;;;;;;20.70;4.40;;;7.90;99.90;;;;;;5035215;28;20079;-64
2024/02/20 01:03:37;;;;;;;17.88;3.72;;;7.90;99.90;;;;;;5034904;28;20517;-64
2024/02/20 01:06:04;;;;;;;26.23;4.95;;;7.90;99.90;;;;;;5034799;28;20072;-64
2024/02/20 01:08:31;;;;;;;20.25;4.00;;;7.90;99.90;;;;;;5034898;28;20490;-64
2024/02/20 01:10:57;;;;;;;16.17;3.88;;;7.90;99.90;;;;;;5035062;28;20482;-62
2024/02/20 01:13:24;;;;;;;24.23;4.28;;;7.90;99.90;;;;;;5034781;28;20042;-62
2024/02/20 01:15:51;;;;;;;20.10;4.55;;;7.90;99.90;;;;;;5034227;28;20047;-62
2024/02/20 01:18:18;;;;;;;19.17;4.13;;;7.90;99.90;;;;;;5035337;28;20124;-62
2024/02/20 01:20:44;;;;;;;21.48;4.50;;;7.90;99.90;;;;;;5035276;28;20072;-62
2024/02/20 01:23:11;;;;;;;21.00;4.53;;;7.90;99.90;;;;;;5035257;28;20037;-62
2024/02/20 01:25:41;;;;;;;21.25;4.18;;;7.90;99.90;;;;;;5033592;28;20145;-62
2024/02/20 01:28:08;;;;;;;26.85;4.40;;;7.90;99.90;;;;;;5035044;28;20042;-62
2024/02/20 01:30:35;;;;;;;20.30;4.78;;;7.90;99.90;;;;;;5034488;28;20053;-62
2024/02/20 01:33:02;;;;;;;19.02;4.70;;;7.80;99.90;;;;;;5035253;28;20037;-62
2024/02/20 01:35:29;;;;;;;21.27;5.03;;;7.90;99.90;;;;;;5034340;28;20056;-62
2024/02/20 01:38:00;;;;;;;24.35;4.88;;;7.90;99.90;;;;;;5034468;28;20046;-62
2024/02/20 01:40:27;;;;;;;17.50;4.30;;;7.90;99.90;;;;;;5034360;28;20041;-63
2024/02/20 01:42:54;;;;;;;18.20;3.88;;;8.00;99.90;;;;;;5033541;28;20041;-63
2024/02/20 01:45:21;;;;;;;23.75;4.40;;;8.00;99.90;;;;;;5034426;28;20084;-62
2024/02/20 01:47:48;;;;;;;22.35;4.22;;;8.00;99.90;;;;;;5034813;28;20037;-62
2024/02/20 01:50:15;;;;;;;17.50;3.83;;;8.10;99.90;;;;;;5032959;28;20053;-62
2024/02/20 01:52:43;;;;;;;19.58;4.18;;;8.10;99.90;;;;;;5034681;28;20104;-64
2024/02/20 01:55:09;;;;;;;27.38;4.65;;;8.00;99.90;;;;;;5033922;28;20041;-64
2024/02/20 01:57:36;;;;;;;22.90;4.72;;;8.10;99.90;;;;;;5034144;28;20124;-64
2024/02/20 02:00:05;;;;;;;18.83;5.63;;;8.10;99.90;;;;;;5034614;28;20048;-64
2024/02/20 02:02:37;;;;;;;21.60;4.40;;;8.00;99.90;;;;;;5034405;28;20045;-64
2024/02/20 02:05:04;;;;;;;18.05;4.50;;;8.00;99.90;;;;;;5033932;28;20434;-62
2024/02/20 02:07:31;;;;;;;21.42;4.18;;;7.90;99.90;;;;;;5034284;28;20048;-62
2024/02/20 02:09:58;;;;;;;24.02;4.32;;;7.90;99.90;;;;;;5033898;28;20037;-62
2024/02/20 02:12:24;;;;;;;21.95;4.18;;;7.90;99.90;;;;;;5034164;28;20493;-62
2024/02/20 02:14:51;;;;;;;22.40;4.90;;;7.90;99.90;;;;;;5033828;28;20045;-62
2024/02/20 02:17:18;;;;;;;21.80;4.75;;;7.80;99.90;;;;;;5034003;28;20037;-62
2024/02/20 02:19:45;;;;;;;20.95;4.60;;;7.80;99.90;;;;;;5034253;28;20038;-62
2024/02/20 02:22:11;;;;;;;19.77;4.53;;;7.80;99.90;;;;;;5033846;28;20037;-62
2024/02/20 02:24:38;;;;;;;23.50;4.30;;;7.80;99.90;;;;;;5033518;28;20091;-62
2024/02/20 02:27:06;;;;;;;22.52;4.25;;;7.70;99.90;;;;;;5034021;28;20042;-62
2024/02/20 02:29:32;;;;;;;26.92;4.78;;;7.70;99.90;;;;;;5033728;28;20061;-62
2024/02/20 02:31:59;;;;;;;23.45;5.00;;;7.70;99.90;;;;;;5034181;28;20053;-62
2024/02/20 02:34:29;;;;;;;23.08;4.40;;;7.70;99.90;;;;;;5033388;28;20045;-62
2024/02/20 02:36:57;;;;;;;23.15;4.78;;;7.60;99.90;;;;;;5033447;28;20064;-62
2024/02/20 02:39:23;;;;;;;25.33;4.55;;;7.60;99.90;;;;;;5032088;28;20045;-62
2024/02/20 02:41:50;;;;;;;24.98;4.57;;;7.60;99.90;;;;;;5033917;28;20458;-62
2024/02/20 02:44:17;;;;;;;19.40;4.75;;;7.50;99.90;;;;;;5033526;28;20486;-62
2024/02/20 02:46:44;;;;;;;24.33;4.97;;;7.50;99.90;;;;;;5033760;28;20037;-62
2024/02/20 02:49:11;;;;;;;23.45;4.85;;;7.60;99.90;;;;;;5033972;28;20099;-62
2024/02/20 02:51:38;;;;;;;27.08;4.82;;;7.50;99.90;;;;;;5033540;28;20048;-62
2024/02/20 02:54:04;;;;;;;22.33;4.82;;;7.50;99.90;;;;;;5033188;28;20402;-62
2024/02/20 02:56:31;;;;;;;19.55;4.47;;;7.50;99.90;;;;;;5032334;28;20061;-62
2024/02/20 02:59:01;;;;;;;26.00;4.95;;;7.50;99.90;;;;;;5034075;28;20116;-62
2024/02/20 03:01:28;;;;;;;26.58;5.10;;;7.50;99.90;;;;;;5033610;28;20039;-62
2024/02/20 03:03:55;;;;;;;26.73;5.00;;;7.50;99.90;;;;;;5033287;28;20044;-61
2024/02/20 03:06:22;;;;;;;28.90;4.68;;;7.40;99.90;;;;;;5031677;28;20119;-62
2024/02/20 03:08:49;;;;;;;22.42;4.90;;;7.40;99.90;;;;;;5033425;28;20048;-62
2024/02/20 03:11:16;;;;;;;27.92;4.40;;;7.40;99.90;;;;;;5033471;28;20052;-62
2024/02/20 03:13:45;;;;;;;27.98;4.95;;;7.40;99.90;;;;;;5032250;28;20100;-61
2024/02/20 03:16:12;;;;;;;22.00;4.30;;;7.40;99.90;;;;;;5033280;28;20079;-61
2024/02/20 03:18:39;;;;;;;26.40;4.88;;;7.40;99.90;;;;;;5033090;28;20124;-62
2024/02/20 03:21:06;;;;;;;23.25;4.90;;;7.40;99.90;;;;;;5032905;28;20038;-61
2024/02/20 03:23:33;;;;;;;26.27;4.60;;;7.40;99.90;;;;;;5033608;28;20380;-61
2024/02/20 03:26:01;;;;;;;28.15;5.25;;;7.40;99.90;;;;;;5032892;28;20075;-62
2024/02/20 03:28:31;;;;;;;24.67;5.00;;;7.30;99.90;;;;;;5033183;28;20378;-61
2024/02/20 03:30:58;;;;;;;22.98;4.68;;;7.30;99.90;;;;;;5033612;28;20065;-61
2024/02/20 03:33:29;;;;;;;28.38;4.70;;;7.30;99.90;;;;;;5033321;28;20104;-61
2024/02/20 03:35:57;;;;;;;23.67;5.10;;;7.30;99.90;;;;;;5032812;28;20041;-63
2024/02/20 03:38:24;;;;;;;23.65;5.13;;;7.40;99.90;;;;;;5033869;28;20061;-64
2024/02/20 03:40:51;;;;;;;28.25;6.13;;;7.40;99.90;;;;;;5037122;28;20041;-64
2024/02/20 03:43:18;;;;;;;28.63;5.50;;;7.40;99.90;;;;;;5036027;28;20029;-63
2024/02/20 03:45:45;;;;;;;31.17;4.75;;;7.30;99.90;;;;;;5036267;28;20036;-63
2024/02/20 03:48:12;;;;;;;25.42;5.70;;;7.30;99.90;;;;;;5037198;28;20533;-63
2024/02/20 03:50:39;;;;;;;32.38;6.07;;;7.30;99.90;;;;;;5036561;28;20375;-64
2024/02/20 03:53:06;;;;;;;26.27;5.10;;;7.30;99.90;;;;;;5036476;28;20454;-64
2024/02/20 03:55:33;;;;;;;25.60;4.47;;;7.30;99.90;;;;;;5036486;28;20147;-64
2024/02/20 03:58:01;;;;;;;32.20;5.55;;;7.20;99.90;;;;;;5036667;28;20045;-64
2024/02/20 04:00:28;;;;;;;26.17;5.22;;;7.20;99.90;;;;;;5036238;28;20039;-63
2024/02/20 04:02:56;;;;;;;26.35;5.65;;;7.20;99.90;;;;;;5036108;28;20041;-64
2024/02/20 04:05:24;;;;;;;26.42;5.20;;;7.20;99.90;;;;;;5036278;28;20494;-63
2024/02/20 04:07:51;;;;;;;29.40;4.57;;;7.20;99.90;;;;;;5036451;28;20064;-63
2024/02/20 04:10:18;;;;;;;25.50;4.43;;;7.20;99.90;;;;;;5036128;28;20043;-64
2024/02/20 04:12:45;;;;;;;29.50;5.95;;;7.20;99.90;;;;;;5035400;28;20052;-64
2024/02/20 04:15:12;;;;;;;30.45;5.82;;;7.20;99.90;;;;;;5036313;28;20482;-64
2024/02/20 04:17:39;;;;;;;38.00;5.25;;;7.20;99.90;;;;;;5036391;28;20069;-64
2024/02/20 04:20:06;;;;;;;24.58;4.65;;;7.20;99.90;;;;;;5036037;28;20048;-64
2024/02/20 04:22:33;;;;;;;29.48;6.07;;;7.20;99.90;;;;;;5035869;28;20132;-64
2024/02/20 04:24:59;;;;;;;25.52;5.25;;;7.20;99.90;;;;;;5035232;28;20065;-64
2024/02/20 04:27:26;;;;;;;29.08;5.07;;;7.20;99.90;;;;;;5034611;28;20056;-63
2024/02/20 04:29:53;;;;;;;29.55;5.03;;;7.10;99.90;;;;;;5036005;28;20068;-63
2024/02/20 04:32:37;;;;;;;32.83;5.53;;;7.20;99.90;;;;;;5035819;28;20044;-64
2024/02/20 04:35:21;;;;;;;33.53;5.57;;;7.10;99.90;;;;;;5036038;28;20044;-63
2024/02/20 04:38:05;;;;;;;28.27;4.72;;;7.10;99.90;;;;;;5035756;28;20025;-64
2024/02/20 04:40:49;;;;;;;29.60;5.22;;;7.20;99.90;;;;;;5034539;28;20057;-64
2024/02/20 04:43:34;;;;;;;30.83;5.15;;;7.20;99.90;;;;;;5035811;28;20037;-64
2024/02/20 04:46:17;;;;;;;27.45;5.43;;;7.10;99.90;;;;;;5035386;28;20113;-63
2024/02/20 04:48:44;;;;;;;27.58;5.70;;;7.10;99.90;;;;;;5036128;28;20041;-63
2024/02/20 04:51:11;;;;;;;29.08;4.93;;;7.10;99.90;;;;;;5034660;28;20060;-63
2024/02/20 04:53:38;;;;;;;29.05;5.57;;;7.10;99.90;;;;;;5035264;28;20053;-63
2024/02/20 04:56:05;;;;;;;29.35;5.57;;;7.10;99.90;;;;;;5035475;28;20132;-63
2024/02/20 04:58:31;;;;;;;32.38;5.50;;;7.00;99.90;;;;;;5035634;28;20049;-63
2024/02/20 05:00:58;;;;;;;33.40;5.78;;;7.00;99.90;;;;;;5034980;28;20045;-63
2024/02/20 05:03:25;;;;;;;38.00;5.22;;;7.00;99.90;;;;;;5035430;28;20045;-63
2024/02/20 05:05:52;;;;;;;33.40;5.95;;;7.00;99.90;;;;;;5035055;28;20071;-63
2024/02/20 05:08:19;;;;;;;33.25;5.20;;;7.00;99.90;;;;;;5034949;28;20044;-63
2024/02/20 05:10:45;;;;;;;34.10;5.72;;;7.00;99.90;;;;;;5035461;28;20037;-63
2024/02/20 05:13:12;;;;;;;31.30;5.65;;;7.00;99.90;;;;;;5035112;28;20037;-63
2024/02/20 05:15:39;;;;;;;32.90;5.80;;;7.00;99.90;;;;;;5034653;28;20125;-63
2024/02/20 05:18:06;;;;;;;36.10;5.70;;;7.00;99.90;;;;;;5035165;28;20155;-63
2024/02/20 05:20:33;;;;;;;25.48;5.63;;;7.00;99.90;;;;;;5034734;28;20049;-63
2024/02/20 05:23:00;;;;;;;37.88;6.70;;;6.90;99.90;;;;;;5035021;28;20045;-63
2024/02/20 05:25:26;;;;;;;30.25;4.95;;;6.90;99.90;;;;;;5034579;28;20051;-63
2024/02/20 05:27:53;;;;;;;31.65;5.90;;;6.90;99.90;;;;;;5035086;28;20390;-63
2024/02/20 05:30:20;;;;;;;31.88;5.47;;;6.90;99.90;;;;;;5034719;28;20037;-63
2024/02/20 05:32:46;;;;;;;25.38;5.55;;;6.90;99.90;;;;;;5034894;28;20095;-63
2024/02/20 05:35:13;;;;;;;25.08;5.60;;;6.90;99.90;;;;;;5034481;28;20051;-63
2024/02/20 05:37:40;;;;;;;33.17;5.57;;;6.90;99.90;;;;;;5034898;28;20041;-63
2024/02/20 05:40:12;;;;;;;38.63;5.38;;;6.80;99.90;;;;;;5034948;28;20049;-63
2024/02/20 05:42:38;;;;;;;33.55;6.15;;;6.80;99.90;;;;;;5033094;28;20041;-64
2024/02/20 05:45:08;;;;;;;31.05;5.15;;;6.80;99.90;;;;;;5033247;28;20394;-63
2024/02/20 05:47:35;;;;;;;29.20;5.57;;;6.80;99.90;;;;;;5034554;28;20120;-64
2024/02/20 05:50:02;;;;;;;35.03;6.00;;;6.80;99.90;;;;;;5033384;28;20461;-64
2024/02/20 05:52:30;;;;;;;37.47;5.38;;;6.80;99.90;;;;;;5032980;28;20426;-64
2024/02/20 05:54:57;;;;;;;35.88;5.82;;;6.80;99.90;;;;;;5034151;28;20049;-64
2024/02/20 05:57:23;;;;;;;30.63;5.75;;;6.80;99.90;;;;;;5034381;28;20061;-63
2024/02/20 05:59:50;;;;;;;37.70;6.25;;;6.80;99.90;;;;;;5034395;28;20111;-62
2024/02/20 06:02:17;;;;;;;30.58;4.60;;;6.80;99.90;;;;;;5033794;28;20041;-62
2024/02/20 06:04:44;;;;;;;29.30;5.18;;;6.70;99.90;;;;;;5034500;28;20561;-62
2024/02/20 06:07:11;;;;;;;26.92;4.53;;;6.70;99.90;;;;;;5034422;28;20128;-62
2024/02/20 06:09:38;;;;;;;28.17;5.20;;;6.70;99.90;;;;;;5034486;28;20042;-62
2024/02/20 06:12:09;;;;;;;25.10;4.68;;;6.70;99.90;;;;;;5033830;28;20053;-62
2024/02/20 06:14:36;;;;;;;32.38;5.88;;;6.70;99.90;;;;;;5033923;28;20457;-63
2024/02/20 06:17:03;;;;;;;30.48;5.30;;;6.70;99.90;;;;;;5033950;28;20486;-62
2024/02/20 06:19:29;;;;;;;26.52;5.10;;;6.70;99.90;;;;;;5034152;28;20045;-62
2024/02/20 06:21:56;;;;;;;32.20;5.70;;;6.60;99.90;;;;;;5033543;28;20042;-62
2024/02/20 06:24:23;;;;;;;28.25;4.85;;;6.60;99.90;;;;;;5032601;28;20390;-64
2024/02/20 06:26:50;;;;;;;33.22;5.22;;;6.60;99.90;;;;;;5033827;28;20037;-64
2024/02/20 06:29:17;;;;;;;30.35;4.93;;;6.60;99.90;;;;;;5034064;28;20045;-65
2024/02/20 06:31:44;;;;;;;31.55;5.35;;;6.60;99.90;;;;;;5034105;28;20057;-65
2024/02/20 06:34:10;;;;;;;36.75;4.93;;;6.60;99.90;;;;;;5033602;28;20120;-64
2024/02/20 06:36:38;;;;;;;24.83;5.10;;;6.60;99.90;;;;;;5033323;28;20042;-64
2024/02/20 06:39:05;;;;;;;29.52;5.10;;;6.50;99.90;;;;;;5033375;28;20046;-64
2024/02/20 06:41:31;;;;;;;27.25;5.78;;;6.50;99.90;;;;;;5033240;28;20443;-66
2024/02/20 06:43:58;;;;;;;25.52;4.60;;;6.50;99.90;;;;;;5033873;28;20069;-65
2024/02/20 06:46:26;;;;;;;29.60;5.88;;;6.50;99.90;;;;;;5033247;28;20075;-65
2024/02/20 06:48:53;;;;;;;29.38;5.53;;;6.50;99.90;;;;;;5033346;28;20045;-65
2024/02/20 06:51:22;;;;;;;27.77;5.93;;;6.50;99.90;;;;;;5033264;28;20046;-65
2024/02/20 06:53:48;;;;;;;29.02;5.78;;;6.50;99.90;;;;;;5033235;28;20045;-62
2024/02/20 06:56:16;;;;;;;23.90;5.07;;;6.50;99.90;;;;;;5033076;28;20056;-62
2024/02/20 06:58:42;;;;;;;26.45;4.95;;;6.50;99.90;;;;;;5033608;28;20117;-62
2024/02/20 07:01:09;;;;;;;25.98;4.95;;;6.50;99.90;;;;;;5033557;28;20045;-62
2024/02/20 07:03:36;;;;;;;20.92;4.88;;;6.50;99.90;;;;;;5033564;28;20037;-62
2024/02/20 07:06:03;;;;;;;25.23;5.60;;;6.60;99.90;;;;;;5033279;28;20132;-62
2024/02/20 07:08:30;;;;;;;29.80;5.72;;;6.50;99.90;;;;;;5033270;28;20098;-62
2024/02/20 07:10:58;;;;;;;27.85;5.07;;;6.50;99.90;;;;;;5033587;28;20501;-62
2024/02/20 07:13:25;;;;;;;23.13;4.95;;;6.50;99.90;;;;;;5033143;28;20045;-63
2024/02/20 07:15:51;;;;;;;25.77;4.97;;;6.50;99.90;;;;;;5037594;28;20045;-63
2024/02/20 07:18:18;;;;;;;29.65;5.65;;;6.50;99.90;;;;;;5036998;28;20073;-62
2024/02/20 07:20:45;;;;;;;26.30;5.15;;;6.50;99.90;;;;;;5037513;28;20049;-62
2024/02/20 07:23:12;;;;;;;30.63;5.80;;;6.50;99.90;;;;;;5035808;28;20543;-62
2024/02/20 07:25:39;;;;;;;21.63;4.95;;;6.50;99.90;;;;;;5037358;28;20117;-62
2024/02/20 07:28:06;;;;;;;24.23;5.85;;;6.50;99.90;;;;;;5036696;28;20406;-62
2024/02/20 07:30:33;;;;;;;26.25;5.55;;;6.60;99.90;;;;;;5036922;28;20049;-62
2024/02/20 07:32:59;;;;;;;24.50;5.38;;;6.50;99.90;;;;;;5037068;28;20438;-65
2024/02/20 07:35:27;;;;;;;28.23;6.05;;;6.60;99.90;;;;;;5037178;28;20079;-65
2024/02/20 07:37:54;;;;;;;23.88;4.95;;;6.60;99.90;;;;;;5037167;28;20038;-65
2024/02/20 07:40:21;;;;;;;31.02;6.00;;;6.60;99.90;;;;;;5036789;28;20069;-65
2024/02/20 07:42:48;;;;;;;23.67;5.53;;;6.60;99.90;;;;;;5037176;28;20377;-64
2024/02/20 07:45:15;;;;;;;20.15;4.82;;;6.60;99.90;;;;;;5035237;28;20047;-65
2024/02/20 07:47:41;;;;;;;26.88;4.97;;;6.60;99.90;;;;;;5037087;28;20121;-65
2024/02/20 07:50:08;;;;;;;29.65;6.25;;;6.60;99.90;;;;;;5036845;28;20073;-64
2024/02/20 07:52:35;;;;;;;27.52;5.53;;;6.60;99.90;;;;;;5036668;28;20069;-65
2024/02/20 07:55:02;;;;;;;20.23;5.43;;;6.60;99.90;;;;;;5036541;28;20131;-64
2024/02/20 07:57:29;;;;;;;22.65;5.30;;;6.60;99.90;;;;;;5036858;28;20133;-64
2024/02/20 07:59:56;;;;;;;26.38;5.85;;;6.70;99.90;;;;;;5036655;28;20042;-64
2024/02/20 08:02:23;;;;;;;24.45;6.88;;;6.70;99.90;;;;;;5036311;28;20048;-64
2024/02/20 08:04:51;;;;;;;28.38;6.10;;;6.70;99.90;;;;;;5036063;28;20041;-64
2024/02/20 08:07:18;;;;;;;24.63;5.75;;;6.70;99.90;;;;;;5036857;28;20463;-64
2024/02/20 08:09:45;;;;;;;24.65;6.50;;;6.80;99.90;;;;;;5036326;28;20052;-64
2024/02/20 08:12:12;;;;;;;27.42;5.65;;;6.80;99.90;;;;;;5036682;28;20045;-65
2024/02/20 08:14:38;;;;;;;25.70;5.50;;;6.90;99.90;;;;;;5036127;28;20057;-64
2024/02/20 08:17:06;;;;;;;25.85;5.25;;;6.90;99.90;;;;;;5036180;28;20072;-64
2024/02/20 08:19:32;;;;;;;23.65;5.95;;;7.00;99.90;;;;;;5036170;28;20046;-65
2024/02/20 08:21:59;;;;;;;19.73;4.97;;;7.10;99.90;;;;;;5031614;28;20137;-65
2024/02/20 08:24:27;;;;;;;25.98;5.10;;;7.10;99.90;;;;;;5045214;28;20045;-65
2024/02/20 08:26:57;;;;;;;19.13;5.55;;;7.10;99.90;;;;;;5035329;28;20076;-65
2024/02/20 08:29:24;;;;;;;23.02;5.47;;;7.20;99.90;;;;;;5035192;28;20409;-65
2024/02/20 08:31:51;;;;;;;19.98;5.00;;;7.30;99.90;;;;;;5048302;28;20379;-65
2024/02/20 08:34:18;;;;;;;27.88;5.25;;;7.30;99.90;;;;;;5055227;28;20049;-65
2024/02/20 08:36:45;;;;;;;29.45;5.60;;;7.40;99.90;;;;;;5055002;28;20033;-65
2024/02/20 08:39:12;;;;;;;24.17;5.18;;;7.40;99.90;;;;;;5054919;28;20490;-65
2024/02/20 08:41:38;;;;;;;31.40;5.97;;;7.50;99.90;;;;;;5054721;28;20069;-64
2024/02/20 08:44:07;;;;;;;19.08;4.50;;;7.60;99.90;;;;;;5033911;28;20042;-65
2024/02/20 08:46:34;;;;;;;25.65;4.57;;;7.60;99.90;;;;;;5034694;28;20072;-65
2024/02/20 08:49:04;;;;;;;26.30;5.97;;;7.70;99.90;;;;;;5022998;28;20050;-65
2024/02/20 08:51:31;;;;;;;20.75;4.50;;;7.70;99.90;;;;;;5015245;28;20462;-65
2024/02/20 08:53:58;;;;;;;27.88;5.18;;;7.70;99.90;;;;;;5015106;28;20107;-64
2024/02/20 08:56:24;;;;;;;24.90;4.55;;;7.80;99.90;;;;;;5013679;28;20045;-64
2024/02/20 08:58:51;;;;;;;21.90;4.78;;;7.90;99.90;;;;;;5014867;28;20376;-65
2024/02/20 09:01:18;;;;;;;27.08;4.97;;;7.90;99.90;;;;;;5035626;28;20061;-65
2024/02/20 09:03:45;;;;;;;21.98;5.53;;;7.90;99.90;;;;;;5054384;28;20585;-65
2024/02/20 09:06:13;;;;;;;29.40;6.07;;;7.90;99.90;;;;;;5054389;28;20509;-65
2024/02/20 09:08:40;;;;;;;21.40;5.40;;;8.00;99.90;;;;;;5054441;28;20464;-65
2024/02/20 09:11:07;;;;;;;20.60;5.03;;;8.00;99.90;;;;;;5046235;28;20046;-64
2024/02/20 09:13:34;;;;;;;19.90;5.35;;;8.00;99.90;;;;;;5034207;28;20037;-66
2024/02/20 09:16:01;;;;;;;21.80;5.72;;;8.10;99.90;;;;;;5034357;28;20041;-66
2024/02/20 09:18:30;;;;;;;22.60;6.20;;;8.00;99.90;;;;;;5034734;28;20051;-66
2024/02/20 09:20:57;;;;;;;21.90;5.57;;;8.10;99.90;;;;;;5053930;28;20049;-65
2024/02/20 09:23:24;;;;;;;25.10;6.30;;;8.10;99.90;;;;;;5052887;28;20398;-65
2024/02/20 09:25:50;;;;;;;23.25;6.72;;;8.20;99.90;;;;;;5052819;28;20480;-65
2024/02/20 09:28:17;;;;;;;20.17;5.68;;;8.20;99.90;;;;;;5054082;28;20428;-66
2024/02/20 09:30:44;;;;;;;17.95;5.40;;;8.30;99.90;;;;;;5053930;28;20048;-66
2024/02/20 09:33:13;;;;;;;17.65;4.78;;;8.30;99.90;;;;;;5054134;28;20116;-66
2024/02/20 09:35:40;;;;;;;19.17;5.15;;;8.30;99.90;;;;;;5052967;28;20048;-65
2024/02/20 09:38:07;;;;;;;22.90;5.35;;;8.40;99.90;;;;;;5053397;28;20206;-65
2024/02/20 09:40:34;;;;;;;21.52;4.88;;;8.50;99.90;;;;;;5054101;28;20128;-65
2024/02/20 09:43:01;;;;;;;18.35;4.97;;;8.50;99.90;;;;;;5053779;28;20492;-65
2024/02/20 09:45:28;;;;;;;22.15;4.97;;;8.60;99.90;;;;;;5053547;28;20096;-65
2024/02/20 09:47:55;;;;;;;26.73;5.90;;;8.60;99.90;;;;;;5053704;28;20041;-65
2024/02/20 09:50:22;;;;;;;19.77;4.95;;;8.70;99.90;;;;;;5053739;28;20362;-65
2024/02/20 09:52:49;;;;;;;21.40;5.72;;;8.70;99.90;;;;;;5053698;28;20052;-64
2024/02/20 09:55:16;;;;;;;21.65;5.13;;;8.80;99.90;;;;;;5053553;28;20049;-65
2024/02/20 09:57:43;;;;;;;20.70;5.13;;;8.90;99.90;;;;;;5053616;28;20041;-65
2024/02/20 10:00:10;;;;;;;22.15;5.20;;;9.00;99.90;;;;;;5051249;28;20135;-65
2024/02/20 10:02:40;;;;;;;20.70;5.03;;;9.00;99.90;;;;;;5053372;28;20138;-65
2024/02/20 10:05:07;;;;;;;17.95;5.30;;;9.10;99.90;;;;;;5051941;28;20037;-65
2024/02/20 10:07:38;;;;;;;24.23;5.93;;;9.20;99.90;;;;;;5052244;28;20057;-65
2024/02/20 10:10:05;;;;;;;28.05;8.65;;;9.20;99.90;;;;;;5053385;28;20497;-65
2024/02/20 10:12:36;;;;;;;22.23;5.47;;;9.20;99.90;;;;;;5053158;28;20080;-65
2024/02/20 10:15:03;;;;;;;23.20;6.18;;;9.30;99.90;;;;;;5053009;28;20107;-65
2024/02/20 10:17:29;;;;;;;23.45;5.28;;;9.40;99.90;;;;;;5053179;28;20049;-67
2024/02/20 10:19:56;;;;;;;22.98;5.18;;;9.40;99.90;;;;;;5053318;28;20460;-66
2024/02/20 10:22:23;;;;;;;26.88;6.40;;;9.40;99.90;;;;;;5053032;28;20136;-66
2024/02/20 10:24:51;;;;;;;30.65;7.07;;;9.50;99.90;;;;;;5053063;28;20060;-66
2024/02/20 10:27:17;;;;;;;26.92;5.93;;;9.50;99.90;;;;;;5053048;28;20037;-66
2024/02/20 10:29:44;;;;;;;31.30;6.18;;;9.50;99.90;;;;;;5052325;28;20068;-66
2024/02/20 10:32:12;;;;;;;24.65;5.60;;;9.50;99.90;;;;;;5053916;28;20378;-64
2024/02/20 10:34:38;;;;;;;32.63;6.68;;;9.60;99.90;;;;;;5053172;28;20041;-65
2024/02/20 10:37:05;;;;;;;26.77;6.13;;;9.60;99.90;;;;;;5052435;28;20037;-64
2024/02/20 10:39:32;;;;;;;26.50;5.80;;;9.60;99.90;;;;;;5051644;28;20044;-64
2024/02/20 10:42:00;;;;;;;26.13;6.13;;;9.60;99.90;;;;;;5052802;28;20037;-64
2024/02/20 10:44:27;;;;;;;30.10;6.63;;;9.70;99.90;;;;;;5052607;28;20116;-66
2024/02/20 10:46:54;;;;;;;28.40;5.90;;;9.80;99.90;;;;;;5052903;28;20068;-64
2024/02/20 10:49:20;;;;;;;21.88;5.05;;;9.90;99.90;;;;;;5051968;28;20043;-65
2024/02/20 10:51:47;;;;;;;18.80;5.18;;;9.90;99.90;;;;;;5052688;28;20033;-65
2024/02/20 10:54:17;;;;;;;27.38;5.28;;;9.90;99.90;;;;;;5052667;28;20544;-65
2024/02/20 10:56:44;;;;;;;22.15;5.28;;;10.00;99.90;;;;;;5052544;28;20049;-65
2024/02/20 10:59:10;;;;;;;23.13;4.72;;;9.90;99.90;;;;;;5052565;28;20120;-65
2024/02/20 11:01:38;;;;;;;21.20;5.90;;;9.90;99.90;;;;;;5052718;28;20037;-66
2024/02/20 11:04:05;;;;;;;18.17;4.90;;;10.00;99.90;;;;;;5052709;28;20037;-67
2024/02/20 11:06:32;;;;;;;18.95;5.28;;;10.00;99.90;;;;;;5052860;28;20413;-66
2024/02/20 11:08:59;;;;;;;19.30;5.15;;;10.10;99.90;;;;;;5052497;28;20477;-66
2024/02/20 11:11:26;;;;;;;23.88;5.63;;;10.10;99.90;;;;;;5052494;28;20482;-66
2024/02/20 11:13:52;;;;;;;17.02;5.07;;;10.10;99.90;;;;;;5052226;28;20076;-66
2024/02/20 11:16:19;;;;;;;15.55;4.15;;;10.10;99.90;;;;;;5052470;28;20045;-66
2024/02/20 11:18:51;;;;;;;16.23;4.40;;;10.10;99.90;;;;;;5052490;28;20409;-66
2024/02/20 11:21:18;;;;;;;18.63;4.75;;;10.20;99.90;;;;;;5052299;28;20049;-65
2024/02/20 11:23:45;;;;;;;15.25;4.80;;;10.20;99.90;;;;;;5052225;28;20499;-66
2024/02/20 11:26:11;;;;;;;17.63;4.50;;;10.30;99.90;;;;;;5051035;28;20045;-66
2024/02/20 11:28:38;;;;;;;15.27;4.13;;;10.30;99.90;;;;;;5052201;28;20033;-66
2024/02/20 11:31:06;;;;;;;15.35;4.55;;;10.30;99.90;;;;;;5052311;28;20040;-66
2024/02/20 11:33:34;;;;;;;17.65;4.68;;;10.30;99.90;;;;;;5052267;28;20045;-65
2024/02/20 11:36:02;;;;;;;17.40;4.43;;;10.30;99.90;;;;;;5050885;28;20037;-65
2024/02/20 11:38:28;;;;;;;15.23;4.20;;;10.30;99.90;;;;;;5051985;28;20250;-65
2024/02/20 11:40:55;;;;;;;13.57;4.32;;;10.40;99.90;;;;;;5050762;28;20385;-65
2024/02/20 11:43:22;;;;;;;16.73;4.22;;;10.40;99.90;;;;;;5052286;28;20033;-65
2024/02/20 11:45:52;;;;;;;14.80;4.43;;;10.40;99.90;;;;;;5052009;28;20490;-65
2024/02/20 11:48:18;;;;;;;12.93;3.80;;;10.50;99.90;;;;;;5052164;28;20516;-65
2024/02/20 11:50:46;;;;;;;11.43;3.63;;;10.50;99.90;;;;;;5051859;28;20433;-65
2024/02/20 11:53:13;;;;;;;11.90;3.40;;;10.50;99.90;;;;;;5052056;28;20041;-65
2024/02/20 11:55:40;;;;;;;10.73;3.33;;;10.60;99.90;;;;;;5052049;28;20037;-66
2024/02/20 11:58:07;;;;;;;9.57;3.17;;;10.60;99.90;;;;;;5052072;28;20045;-65
2024/02/20 12:00:34;;;;;;;10.15;2.97;;;10.70;99.90;;;;;;5052529;28;20409;-65
2024/02/20 12:03:02;;;;;;;12.63;3.10;;;10.70;99.90;;;;;;5055791;28;20373;-65
2024/02/20 12:05:29;;;;;;;11.45;3.28;;;10.70;99.90;;;;;;5055443;28;20044;-65
2024/02/20 12:07:56;;;;;;;6.97;2.92;;;10.80;99.90;;;;;;5055745;28;20068;-65
2024/02/20 12:10:23;;;;;;;6.28;2.80;;;10.80;99.90;;;;;;5055403;28;20045;-65
2024/02/20 12:12:51;;;;;;;6.65;2.42;;;10.80;99.90;;;;;;5055679;28;20047;-65
2024/02/20 12:15:17;;;;;;;6.13;2.47;;;10.90;99.90;;;;;;5055287;28;20049;-65
2024/02/20 12:17:44;;;;;;;8.45;2.65;;;11.00;99.90;;;;;;5055274;28;20045;-65
2024/02/20 12:20:11;;;;;;;8.70;2.35;;;11.00;99.90;;;;;;5053963;28;20041;-65
2024/02/20 12:22:41;;;;;;;4.65;2.25;;;11.10;99.90;;;;;;5055383;28;20106;-66
2024/02/20 12:25:08;;;;;;;6.18;1.88;;;11.10;99.90;;;;;;5055269;28;20494;-65
2024/02/20 12:27:35;;;;;;;5.47;1.70;;;11.10;99.90;;;;;;5055199;28;20383;-65
2024/02/20 12:30:02;;;;;;;3.83;1.45;;;11.10;99.90;;;;;;5055418;28;20362;-66
2024/02/20 12:32:29;;;;;;;3.50;1.40;;;11.10;99.90;;;;;;5054189;28;20094;-66
2024/02/20 12:34:56;;;;;;;2.90;1.40;;;11.10;99.90;;;;;;5055774;28;20040;-66
2024/02/20 12:37:23;;;;;;;2.72;1.50;;;11.20;99.90;;;;;;5055629;28;20041;-66
2024/02/20 12:39:49;;;;;;;2.88;1.27;;;11.20;99.90;;;;;;5055574;28;20398;-66
2024/02/20 12:42:16;;;;;;;3.70;1.10;;;11.20;99.90;;;;;;5055344;28;20474;-66
2024/02/20 12:44:43;;;;;;;3.35;1.10;;;11.30;99.90;;;;;;5053686;28;20540;-66
2024/02/20 12:47:10;;;;;;;3.50;1.33;;;11.30;99.90;;;;;;5053563;28;20060;-66